Oymekon (Russia)  www.meteorete.it

situazione meteo Attuale :15:03:52
Temperatura : 8.1
Umidita :30.9 %
Pressione :1008.1 hPa
Vel vento :0.7 Km
Direz. :NE
Precip.(mm.):0.0
   

Condizioni Meteo per: Oymekon, Russia

aggiornamento precedente: 22.05.2017 19:37
prossimo aggiornamento: 23.05.2017 08:00
Latitude: 63.46° N
Longitude: 142.79° E
Altitude: 838 m

hPa
mm °C
    Temperatura Precipitazioni Pressione vento Umidità Nuvoloso Nebbia
 03:58     22:53 OGGI
17:00   1008.1 hPa 0.7 m/s 31% 92%
19:00   1008.8 hPa 2.6 m/s 39% 96%
21:00   1010.3 hPa 2.4 m/s 52% 30%
23:00   1011.6 hPa 2.4 m/s 72% 52%
 03:55     22:55 DOMANI
01:00   1012.6 hPa 2.4 m/s 81% 54%
03:00   1013.3 hPa 2.1 m/s 81% 77%
05:00   1013.9 hPa 2.3 m/s 75% 83%
07:00   1014.0 hPa 2.5 m/s 60% 79%
09:00   1012.7 hPa 2.2 m/s 44% 74%
11:00   1010.8 hPa 2.1 m/s 32% 0%
13:00   1009.2 hPa 1.3 m/s 26% 0%
15:00   1007.4 hPa 1.4 m/s 22% 0%
17:00   1006.0 hPa 2.0 m/s 22% 0%
19:00   1005.2 hPa 1.0 m/s 24% 11%
21:00   1006.1 hPa 3.1 m/s 39% 9%
23:00   1007.1 hPa 2.1 m/s 66% 0%
 03:52     22:58 Giovedi 25.05.2017
01:00   1008.0 hPa 1.8 m/s 79% 0%
03:00   1008.8 hPa 2.4 m/s 86% 2%
05:00   1008.5 hPa 2.4 m/s 85% 9%
07:00   1007.3 hPa 2.6 m/s 62% 99%
09:00   1003.7 hPa 3.1 m/s 44% 95%
11:00   999.7 hPa 3.0 m/s 36% 100%
13:00 0.2 mm 998.3 hPa 3.6 m/s 40% 100%
15:00   997.4 hPa 4.1 m/s 39% 100%
17:00   996.6 hPa 3.7 m/s 37% 90%
19:00 0.4 mm 997.3 hPa 2.8 m/s 49% 95%
21:00 0.5 mm 998.1 hPa 1.6 m/s 83% 50%
23:00   997.8 hPa 2.2 m/s 85% 100%
 03:50     23:01 Venerdi 26.05.2017
01:00   998.0 hPa 2.3 m/s 89% 100%
03:00 1.1 mm 997.7 hPa 2.4 m/s 99% 100%
05:00 1.4 mm 997.4 hPa 2.6 m/s 100% 100%
17:00   998.6 hPa 6.4 m/s 27% 53%
23:00   1003.7 hPa 1.8 m/s 52% 95%
 03:47     23:04 Sabato 27.05.2017
05:00   1006.5 hPa 1.3 m/s 69% 0%
11:00   1004.9 hPa 1.4 m/s 43% 100%
17:00   1001.5 hPa 2.6 m/s 43% 100%
23:00 3.4 mm 1002.3 hPa 1.6 m/s 94% 100%
 03:44     23:07 Domenica 28.05.2017
05:00 1.2 mm 1005.2 hPa 2.3 m/s 99% 100%
11:00   1005.7 hPa 2.6 m/s 49% 100%
17:00   1004.0 hPa 3.9 m/s 25% 98%
23:00   1006.5 hPa 1.9 m/s 57% 74%
 03:42     23:09 Lunedi 29.05.2017
05:00   1007.4 hPa 0.8 m/s 83% 84%
11:00   1005.5 hPa 0.4 m/s 45% 100%
17:00   1005.5 hPa 1.6 m/s 50% 100%
23:00 1.1 mm 1007.4 hPa 1.1 m/s 88% 100%
 03:40     23:12 Martedi 30.05.2017
05:00 2.0 mm 1007.5 hPa 1.4 m/s 99% 100%
11:00 1.1 mm 1006.7 hPa 0.5 m/s 88% 100%
17:00 0.6 mm 1005.1 hPa 0.2 m/s 74% 100%
23:00   1003.6 hPa 1.4 m/s 84% 56%
 03:37     23:15 Mercoledi 31.05.2017
05:00   1001.2 hPa 0.7 m/s 97% 46%
11:00   994.4 hPa 2.8 m/s 44% 63%
17:00 0.6 mm 991.5 hPa 3.1 m/s 62% 100%
23:00 2.9 mm 991.7 hPa 2.9 m/s 97% 100%
 03:35     23:17 Giovedi 01.06.2017
05:00 1.7 mm 993.1 hPa 3.7 m/s 90% 100%
11:00 5.4 mm 995.3 hPa 3.2 m/s 74% 100%
17:00 2.7 mm 997.7 hPa 3.3 m/s 70% 100%
23:00 0.9 mm 1001.4 hPa 2.1 m/s 81% 94%